createdAt,value
2022-12-28T00:00:40.333Z,1009.78
2022-12-28T00:01:40.274Z,1009.82
2022-12-28T00:02:39.319Z,1009.75
2022-12-28T00:03:39.189Z,1009.65
2022-12-28T00:04:40.268Z,1009.64
2022-12-28T00:05:39.180Z,1009.67
2022-12-28T00:06:39.179Z,1009.67
2022-12-28T00:07:40.143Z,1009.62
2022-12-28T00:08:39.172Z,1009.56
2022-12-28T00:09:39.168Z,1009.58
2022-12-28T00:11:08.998Z,1009.61
2022-12-28T00:11:40.110Z,1009.50
2022-12-28T00:12:39.109Z,1009.56
2022-12-28T00:13:39.132Z,1009.52
2022-12-28T00:14:40.078Z,1009.59
2022-12-28T00:15:39.074Z,1009.53
2022-12-28T00:16:39.137Z,1009.51
2022-12-28T00:17:39.060Z,1009.50
2022-12-28T00:18:39.198Z,1009.50
2022-12-28T00:19:39.044Z,1009.50
2022-12-28T00:20:39.012Z,1009.52
2022-12-28T00:21:39.068Z,1009.47
2022-12-28T00:22:38.993Z,1009.46
2022-12-28T00:23:38.978Z,1009.45
2022-12-28T00:24:38.974Z,1009.49
2022-12-28T00:25:38.936Z,1009.40
2022-12-28T00:26:38.996Z,1009.40
2022-12-28T00:27:38.939Z,1009.43
2022-12-28T00:28:38.910Z,1009.45
2022-12-28T00:29:39.916Z,1009.47
2022-12-28T00:30:38.935Z,1009.43
2022-12-28T00:31:38.936Z,1009.30
2022-12-28T00:32:38.899Z,1009.31
2022-12-28T00:33:38.893Z,1009.34
2022-12-28T00:34:38.878Z,1009.33
2022-12-28T00:35:38.856Z,1009.28
2022-12-28T00:37:10.368Z,1009.27
2022-12-28T00:37:39.801Z,1009.27
2022-12-28T00:38:39.799Z,1009.30
2022-12-28T00:39:39.830Z,1009.29
2022-12-28T00:40:38.804Z,1009.26
2022-12-28T00:41:38.775Z,1009.29
2022-12-28T00:42:39.755Z,1009.27
2022-12-28T00:43:38.751Z,1009.26
2022-12-28T00:44:38.758Z,1009.27
2022-12-28T00:45:38.773Z,1009.23
2022-12-28T00:46:38.725Z,1009.15
2022-12-28T00:47:39.698Z,1009.22
2022-12-28T00:48:38.717Z,1009.19
2022-12-28T00:49:38.694Z,1009.25
2022-12-28T00:50:39.686Z,1009.26
2022-12-28T00:51:38.694Z,1009.23
2022-12-28T00:52:38.771Z,1009.22
2022-12-28T00:53:38.666Z,1009.21
2022-12-28T00:54:38.650Z,1009.26
2022-12-28T00:55:39.635Z,1009.26
2022-12-28T00:56:38.640Z,1009.27
2022-12-28T00:57:39.623Z,1009.20
2022-12-28T00:58:38.595Z,1009.20
2022-12-28T00:59:38.598Z,1009.14
2022-12-28T01:00:39.602Z,1009.18
2022-12-28T01:01:38.716Z,1009.18
2022-12-28T01:02:38.591Z,1009.19
2022-12-28T01:03:38.555Z,1009.24
2022-12-28T01:04:38.546Z,1009.18
2022-12-28T01:05:38.519Z,1009.25
2022-12-28T01:06:39.672Z,1009.24
2022-12-28T01:07:38.469Z,1009.24
2022-12-28T01:08:38.495Z,1009.22
2022-12-28T01:09:38.474Z,1009.27
2022-12-28T01:10:39.473Z,1009.22
2022-12-28T01:11:38.474Z,1009.21
2022-12-28T01:12:38.646Z,1009.19
2022-12-28T01:13:39.454Z,1009.19
2022-12-28T01:14:38.394Z,1009.16
2022-12-28T01:15:39.419Z,1009.21
2022-12-28T01:16:38.436Z,1009.15
2022-12-28T01:17:38.397Z,1009.14
2022-12-28T01:18:38.352Z,1009.16
2022-12-28T01:19:38.428Z,1009.18
2022-12-28T01:20:38.359Z,1009.11
2022-12-28T01:21:38.341Z,1009.02
2022-12-28T01:22:38.333Z,1009.05
2022-12-28T01:23:39.314Z,1009.06
2022-12-28T01:24:38.302Z,1009.05
2022-12-28T01:25:38.276Z,1009.06
2022-12-28T01:26:38.282Z,1009.02
2022-12-28T01:27:38.253Z,1009.08
2022-12-28T01:28:38.238Z,1009.11
2022-12-28T01:29:38.289Z,1009.03
2022-12-28T01:30:38.879Z,1009.02
2022-12-28T01:31:38.335Z,1009.00
2022-12-28T01:32:38.230Z,1008.98
2022-12-28T01:33:38.196Z,1008.99
2022-12-28T01:34:38.195Z,1008.91
2022-12-28T01:35:38.250Z,1008.93
2022-12-28T01:36:38.209Z,1008.93
2022-12-28T01:37:38.167Z,1008.76
2022-12-28T01:38:39.172Z,1008.77
2022-12-28T01:39:38.131Z,1008.73
2022-12-28T01:40:38.111Z,1008.73
2022-12-28T01:41:39.127Z,1008.68
2022-12-28T01:42:38.123Z,1008.71
2022-12-28T01:43:38.093Z,1008.63
2022-12-28T01:44:38.106Z,1008.66
2022-12-28T01:45:38.078Z,1008.60
2022-12-28T01:46:38.068Z,1008.59
2022-12-28T01:47:38.056Z,1008.59
2022-12-28T01:48:39.024Z,1008.58
2022-12-28T01:49:38.041Z,1008.56
2022-12-28T01:50:38.055Z,1008.51
2022-12-28T01:51:38.012Z,1008.61
2022-12-28T01:52:39.019Z,1008.53
2022-12-28T01:53:37.974Z,1008.48
2022-12-28T01:54:38.016Z,1008.51
2022-12-28T01:55:37.972Z,1008.45
2022-12-28T01:56:37.931Z,1008.41
2022-12-28T01:57:37.971Z,1008.41
2022-12-28T01:58:37.900Z,1008.37
2022-12-28T01:59:37.908Z,1008.30
2022-12-28T02:00:37.904Z,1008.26
2022-12-28T02:01:37.997Z,1008.23
2022-12-28T02:02:38.087Z,1008.12
2022-12-28T02:03:38.896Z,1008.19
2022-12-28T02:04:38.872Z,1008.08
2022-12-28T02:05:37.823Z,1008.14
2022-12-28T02:06:37.867Z,1008.05
2022-12-28T02:07:37.810Z,1007.96
2022-12-28T02:08:37.845Z,1007.98
2022-12-28T02:09:37.817Z,1007.98
2022-12-28T02:10:44.264Z,1007.91
2022-12-28T02:11:38.766Z,1007.86
2022-12-28T02:12:37.833Z,1007.76
2022-12-28T02:13:37.749Z,1007.80
2022-12-28T02:14:37.749Z,1007.73
2022-12-28T02:15:37.764Z,1007.65
2022-12-28T02:16:37.788Z,1007.71
2022-12-28T02:17:37.709Z,1007.68
2022-12-28T02:18:37.759Z,1007.62
2022-12-28T02:19:37.677Z,1007.64
2022-12-28T02:20:37.789Z,1007.66
2022-12-28T02:21:37.673Z,1007.63
2022-12-28T02:22:38.670Z,1007.65
2022-12-28T02:23:37.657Z,1007.60
2022-12-28T02:24:37.680Z,1007.61
2022-12-28T02:25:37.630Z,1007.60
2022-12-28T02:26:37.635Z,1007.68
2022-12-28T02:27:37.625Z,1007.65
2022-12-28T02:28:38.591Z,1007.64
2022-12-28T02:29:37.628Z,1007.62
2022-12-28T02:30:37.595Z,1007.56
2022-12-28T02:31:38.584Z,1007.52
2022-12-28T02:32:38.109Z,1007.47
2022-12-28T02:33:38.539Z,1007.45
2022-12-28T02:34:38.542Z,1007.47
2022-12-28T02:35:38.512Z,1007.41
2022-12-28T02:36:37.533Z,1007.44
2022-12-28T02:37:37.536Z,1007.48
2022-12-28T02:38:37.535Z,1007.40
2022-12-28T02:39:37.452Z,1007.36
2022-12-28T02:40:37.487Z,1007.36
2022-12-28T02:41:37.446Z,1007.38
2022-12-28T02:42:37.441Z,1007.33
2022-12-28T02:43:37.431Z,1007.30
2022-12-28T02:44:37.439Z,1007.33
2022-12-28T02:45:37.388Z,1007.26
2022-12-28T02:46:37.398Z,1007.22
2022-12-28T02:47:37.359Z,1007.28
2022-12-28T02:48:37.405Z,1007.24
2022-12-28T02:49:37.362Z,1007.19
2022-12-28T02:50:37.347Z,1007.23
2022-12-28T02:51:37.336Z,1007.23
2022-12-28T02:52:37.341Z,1007.15
2022-12-28T02:53:38.300Z,1007.12
2022-12-28T02:54:37.302Z,1007.15
2022-12-28T02:55:37.315Z,1007.12
2022-12-28T02:56:37.277Z,1007.10
2022-12-28T02:57:37.267Z,1007.18
2022-12-28T02:58:37.237Z,1007.05
2022-12-28T02:59:37.259Z,1007.11
2022-12-28T03:00:37.249Z,1007.07
2022-12-28T03:01:37.269Z,1007.02
2022-12-28T03:02:37.442Z,1006.95
2022-12-28T03:03:37.220Z,1006.95
2022-12-28T03:04:37.213Z,1006.93
2022-12-28T03:05:38.189Z,1006.86
2022-12-28T03:06:37.176Z,1006.82
2022-12-28T03:07:37.173Z,1006.81
2022-12-28T03:08:37.161Z,1006.83
2022-12-28T03:09:38.162Z,1006.89
2022-12-28T03:10:37.101Z,1006.82
2022-12-28T03:11:37.111Z,1006.84
2022-12-28T03:12:37.111Z,1006.73
2022-12-28T03:13:37.079Z,1006.72
2022-12-28T03:14:37.143Z,1006.71
2022-12-28T03:15:37.185Z,1006.72
2022-12-28T03:16:37.046Z,1006.74
2022-12-28T03:17:37.042Z,1006.77
2022-12-28T03:18:37.021Z,1006.74
2022-12-28T03:19:37.000Z,1006.70
2022-12-28T03:20:37.011Z,1006.68
2022-12-28T03:21:37.006Z,1006.68
2022-12-28T03:22:36.984Z,1006.56
2022-12-28T03:23:37.023Z,1006.56
2022-12-28T03:24:36.949Z,1006.62
2022-12-28T03:25:36.954Z,1006.56
2022-12-28T03:26:36.945Z,1006.49
2022-12-28T03:27:36.972Z,1006.51
2022-12-28T03:28:36.945Z,1006.47
2022-12-28T03:29:36.959Z,1006.50
2022-12-28T03:30:36.897Z,1006.43
2022-12-28T03:31:37.892Z,1006.36
2022-12-28T03:32:36.867Z,1006.35
2022-12-28T03:33:36.847Z,1006.32
2022-12-28T03:34:36.857Z,1006.30
2022-12-28T03:35:36.890Z,1006.28
2022-12-28T03:36:36.830Z,1006.26
2022-12-28T03:37:36.828Z,1006.22
2022-12-28T03:38:37.808Z,1006.25
2022-12-28T03:39:36.799Z,1006.22
2022-12-28T03:40:36.786Z,1006.25
2022-12-28T03:41:36.853Z,1006.24
2022-12-28T03:42:36.735Z,1006.22
2022-12-28T03:43:36.732Z,1006.17
2022-12-28T03:44:37.776Z,1006.20
2022-12-28T03:45:45.445Z,1006.20
2022-12-28T03:46:37.750Z,1006.08
2022-12-28T03:47:36.748Z,1006.05
2022-12-28T03:48:36.683Z,1006.01
2022-12-28T03:49:37.675Z,1006.00
2022-12-28T03:50:36.662Z,1006.04
2022-12-28T03:51:36.662Z,1006.01
2022-12-28T03:52:36.679Z,1005.99
2022-12-28T03:53:37.644Z,1006.00
2022-12-28T03:54:37.611Z,1005.92
2022-12-28T03:55:36.623Z,1005.93
2022-12-28T03:56:36.604Z,1005.91
2022-12-28T03:57:36.594Z,1005.92
2022-12-28T03:58:36.572Z,1005.82
2022-12-28T03:59:36.571Z,1005.81
2022-12-28T04:00:36.561Z,1005.84
2022-12-28T04:01:36.629Z,1005.78
2022-12-28T04:02:36.698Z,1005.73
2022-12-28T04:03:36.542Z,1005.73
2022-12-28T04:04:37.492Z,1005.75
2022-12-28T04:05:36.502Z,1005.82
2022-12-28T04:06:36.493Z,1005.88
2022-12-28T04:07:36.577Z,1005.80
2022-12-28T04:08:36.515Z,1005.78
2022-12-28T04:09:36.477Z,1005.86
2022-12-28T04:10:36.445Z,1005.77
2022-12-28T04:11:36.414Z,1005.78
2022-12-28T04:12:36.492Z,1005.72
2022-12-28T04:13:36.398Z,1005.67
2022-12-28T04:14:36.409Z,1005.75
2022-12-28T04:15:36.404Z,1005.70
2022-12-28T04:16:36.499Z,1005.71
2022-12-28T04:17:36.369Z,1005.63
2022-12-28T04:18:36.356Z,1005.67
2022-12-28T04:19:36.343Z,1005.62
2022-12-28T04:20:36.338Z,1005.66
2022-12-28T04:21:36.345Z,1005.60
2022-12-28T04:22:37.304Z,1005.52
2022-12-28T04:23:36.317Z,1005.58
2022-12-28T04:24:37.296Z,1005.59
2022-12-28T04:25:36.275Z,1005.53
2022-12-28T04:26:37.247Z,1005.49
2022-12-28T04:27:36.249Z,1005.52
2022-12-28T04:28:37.221Z,1005.54
2022-12-28T04:29:36.233Z,1005.45
2022-12-28T04:30:36.216Z,1005.48
2022-12-28T04:31:37.235Z,1005.41
2022-12-28T04:32:36.205Z,1005.35
2022-12-28T04:33:36.183Z,1005.36
2022-12-28T04:34:36.169Z,1005.21
2022-12-28T04:35:37.167Z,1005.28
2022-12-28T04:36:37.163Z,1005.20
2022-12-28T04:37:36.155Z,1005.17
2022-12-28T04:38:36.124Z,1005.16
2022-12-28T04:39:56.472Z,1005.20
2022-12-28T04:40:37.137Z,1005.25
2022-12-28T04:41:36.089Z,1005.24
2022-12-28T04:42:37.079Z,1005.24
2022-12-28T04:43:37.063Z,1005.24
2022-12-28T04:44:36.055Z,1005.19
2022-12-28T04:45:37.052Z,1005.16
2022-12-28T04:46:36.091Z,1005.11
2022-12-28T04:47:36.022Z,1005.13
2022-12-28T04:48:37.012Z,1005.13
2022-12-28T04:49:36.032Z,1005.20
2022-12-28T04:50:36.017Z,1005.22
2022-12-28T04:51:36.004Z,1005.19
2022-12-28T04:52:35.981Z,1005.09
2022-12-28T04:53:35.955Z,1005.10
2022-12-28T04:54:35.939Z,1005.07
2022-12-28T04:55:36.981Z,1005.06
2022-12-28T04:56:35.955Z,1005.13
2022-12-28T04:57:36.914Z,1005.11
2022-12-28T04:58:36.906Z,1005.10
2022-12-28T04:59:35.909Z,1005.06
2022-12-28T05:00:36.925Z,1005.10
2022-12-28T05:01:36.060Z,1005.11
2022-12-28T05:02:35.931Z,1005.12
2022-12-28T05:03:36.870Z,1005.10
2022-12-28T05:04:35.857Z,1005.03
2022-12-28T05:05:35.835Z,1005.01
2022-12-28T05:06:35.815Z,1005.02
2022-12-28T05:07:35.821Z,1005.02
2022-12-28T05:08:35.777Z,1005.05
2022-12-28T05:09:35.895Z,1005.00
2022-12-28T05:10:36.777Z,1004.95
2022-12-28T05:11:35.763Z,1004.94
2022-12-28T05:12:35.751Z,1005.02
2022-12-28T05:13:35.718Z,1004.92
2022-12-28T05:14:37.351Z,1005.01
2022-12-28T05:15:35.748Z,1004.89
2022-12-28T05:16:35.736Z,1004.89
2022-12-28T05:17:35.683Z,1004.91
2022-12-28T05:18:35.699Z,1004.88
2022-12-28T05:19:36.696Z,1004.83
2022-12-28T05:20:35.677Z,1004.84
2022-12-28T05:21:35.679Z,1004.85
2022-12-28T05:22:40.858Z,1004.85
2022-12-28T05:23:35.625Z,1004.94
2022-12-28T05:24:35.600Z,1004.90
2022-12-28T05:25:35.587Z,1004.89
2022-12-28T05:26:35.590Z,1004.81
2022-12-28T05:27:35.628Z,1004.91
2022-12-28T05:28:35.560Z,1004.80
2022-12-28T05:29:35.568Z,1004.86
2022-12-28T05:30:35.578Z,1004.84
2022-12-28T05:31:35.610Z,1004.78
2022-12-28T05:32:35.538Z,1004.79
2022-12-28T05:33:35.579Z,1004.67
2022-12-28T05:34:35.548Z,1004.74
2022-12-28T05:35:35.529Z,1004.78
2022-12-28T05:36:36.539Z,1004.80
2022-12-28T05:37:35.530Z,1004.79
2022-12-28T05:38:35.462Z,1004.79
2022-12-28T05:39:35.471Z,1004.75
2022-12-28T05:40:35.433Z,1004.73
2022-12-28T05:41:36.412Z,1004.68
2022-12-28T05:42:36.419Z,1004.67
2022-12-28T05:43:35.419Z,1004.63
2022-12-28T05:44:35.399Z,1004.61
2022-12-28T05:45:35.432Z,1004.54
2022-12-28T05:46:35.475Z,1004.58
2022-12-28T05:47:35.373Z,1004.55
2022-12-28T05:48:35.360Z,1004.53
2022-12-28T05:49:36.330Z,1004.49
2022-12-28T05:50:35.328Z,1004.45
2022-12-28T05:51:37.344Z,1004.51
2022-12-28T05:52:37.008Z,1004.50
2022-12-28T05:53:35.278Z,1004.45
2022-12-28T05:54:35.317Z,1004.46
2022-12-28T05:55:35.253Z,1004.57
2022-12-28T05:56:36.263Z,1004.48
2022-12-28T05:57:35.265Z,1004.42
2022-12-28T05:58:35.252Z,1004.45
2022-12-28T05:59:35.250Z,1004.46
2022-12-28T06:00:35.220Z,1004.43
2022-12-28T06:01:35.421Z,1004.36
2022-12-28T06:02:35.309Z,1004.30
2022-12-28T06:03:35.354Z,1004.24
2022-12-28T06:04:36.221Z,1004.26
2022-12-28T06:05:35.175Z,1004.32
2022-12-28T06:06:36.193Z,1004.28
2022-12-28T06:07:35.141Z,1004.31
2022-12-28T06:08:35.132Z,1004.28
2022-12-28T06:09:35.111Z,1004.31
2022-12-28T06:10:35.131Z,1004.26
2022-12-28T06:11:35.122Z,1004.25
2022-12-28T06:12:35.082Z,1004.23
2022-12-28T06:13:35.080Z,1004.31
2022-12-28T06:14:36.055Z,1004.28
2022-12-28T06:15:35.065Z,1004.20
2022-12-28T06:16:35.104Z,1004.16
2022-12-28T06:17:35.024Z,1004.08
2022-12-28T06:18:35.026Z,1004.07
2022-12-28T06:19:35.003Z,1004.03
2022-12-28T06:20:35.015Z,1004.04
2022-12-28T06:21:36.016Z,1004.05
2022-12-28T06:22:35.997Z,1004.07
2022-12-28T06:23:34.958Z,1004.01
2022-12-28T06:24:34.972Z,1003.94
2022-12-28T06:25:34.950Z,1003.93
2022-12-28T06:26:34.936Z,1003.84
2022-12-28T06:27:34.934Z,1003.86
2022-12-28T06:28:35.946Z,1003.79
2022-12-28T06:29:35.887Z,1003.75
2022-12-28T06:30:35.870Z,1003.78
2022-12-28T06:31:35.076Z,1003.78
2022-12-28T06:32:34.856Z,1003.75
2022-12-28T06:33:34.877Z,1003.74
2022-12-28T06:34:34.873Z,1003.77
2022-12-28T06:35:34.828Z,1003.68
2022-12-28T06:36:35.814Z,1003.73
2022-12-28T06:37:35.795Z,1003.77
2022-12-28T06:38:34.796Z,1003.71
2022-12-28T06:39:34.795Z,1003.67
2022-12-28T06:41:10.953Z,1003.62
2022-12-28T06:41:35.760Z,1003.65
2022-12-28T06:42:34.739Z,1003.59
2022-12-28T06:43:35.771Z,1003.64
2022-12-28T06:44:38.025Z,1003.62
2022-12-28T06:45:35.774Z,1003.70
2022-12-28T06:46:34.750Z,1003.71
2022-12-28T06:47:35.704Z,1003.69
2022-12-28T06:48:34.677Z,1003.66
2022-12-28T06:49:34.682Z,1003.63
2022-12-28T06:50:39.924Z,1003.70
2022-12-28T06:51:35.649Z,1003.60
2022-12-28T06:52:34.619Z,1003.66
2022-12-28T06:53:34.680Z,1003.64
2022-12-28T06:54:35.627Z,1003.70
2022-12-28T06:55:34.601Z,1003.60
2022-12-28T06:56:34.643Z,1003.60
2022-12-28T06:57:34.605Z,1003.66
2022-12-28T06:58:34.600Z,1003.69
2022-12-28T06:59:34.587Z,1003.59
2022-12-28T07:00:34.539Z,1003.58
2022-12-28T07:01:34.953Z,1003.53
2022-12-28T07:02:35.709Z,1003.54
2022-12-28T07:03:34.507Z,1003.55
2022-12-28T07:04:34.496Z,1003.47
2022-12-28T07:05:35.488Z,1003.50
2022-12-28T07:06:34.483Z,1003.43
2022-12-28T07:07:34.470Z,1003.34
2022-12-28T07:08:34.472Z,1003.42
2022-12-28T07:09:34.485Z,1003.30
2022-12-28T07:10:34.432Z,1003.31
2022-12-28T07:11:34.433Z,1003.30
2022-12-28T07:12:35.439Z,1003.29
2022-12-28T07:13:34.411Z,1003.21
2022-12-28T07:14:34.402Z,1003.26
2022-12-28T07:15:35.367Z,1003.27
2022-12-28T07:17:03.839Z,1003.29
2022-12-28T07:18:03.776Z,1003.27
2022-12-28T07:19:04.874Z,1003.31
2022-12-28T07:20:04.785Z,1003.21
2022-12-28T07:21:04.771Z,1003.24
2022-12-28T07:22:03.784Z,1003.20
2022-12-28T07:23:03.745Z,1003.18
2022-12-28T07:24:03.724Z,1003.22
2022-12-28T07:25:03.719Z,1003.15
2022-12-28T07:26:03.707Z,1003.07
2022-12-28T07:27:04.707Z,1003.21
2022-12-28T07:28:03.719Z,1003.31
2022-12-28T07:29:03.689Z,1003.22
2022-12-28T07:30:03.642Z,1003.29
2022-12-28T07:31:03.698Z,1003.30
2022-12-28T07:32:03.644Z,1003.32
2022-12-28T07:33:03.636Z,1003.24
2022-12-28T07:34:03.631Z,1003.31
2022-12-28T07:35:04.619Z,1003.30
2022-12-28T07:36:03.579Z,1003.34
2022-12-28T07:37:03.606Z,1003.29
2022-12-28T07:38:03.566Z,1003.26
2022-12-28T07:39:04.577Z,1003.30
2022-12-28T07:40:03.585Z,1003.22
2022-12-28T07:41:03.567Z,1003.25
2022-12-28T07:42:03.531Z,1003.20
2022-12-28T07:43:03.515Z,1003.20
2022-12-28T07:44:03.528Z,1003.15
2022-12-28T07:45:03.536Z,1003.17
2022-12-28T07:46:03.542Z,1003.10
2022-12-28T07:47:03.469Z,1003.11
2022-12-28T07:48:03.474Z,1003.16
2022-12-28T07:49:03.452Z,1003.22
2022-12-28T07:50:03.422Z,1003.14
2022-12-28T07:51:03.436Z,1003.11
2022-12-28T07:52:04.449Z,1003.06
2022-12-28T07:53:03.448Z,1003.09
2022-12-28T07:54:03.387Z,1003.09
2022-12-28T07:55:03.389Z,1002.97
2022-12-28T07:56:03.352Z,1003.00
2022-12-28T07:57:04.414Z,1003.11
2022-12-28T07:58:03.362Z,1003.11
2022-12-28T07:59:03.371Z,1003.09
2022-12-28T08:00:03.345Z,1003.03
2022-12-28T08:01:03.419Z,1003.09
2022-12-28T08:02:04.363Z,1003.12
2022-12-28T08:03:03.323Z,1003.07
2022-12-28T08:04:03.424Z,1003.07
2022-12-28T08:05:03.281Z,1003.02
2022-12-28T08:06:03.249Z,1003.02
2022-12-28T08:07:03.249Z,1003.09
2022-12-28T08:08:03.896Z,1003.07
2022-12-28T08:09:04.292Z,1003.02
2022-12-28T08:10:03.225Z,1003.02
2022-12-28T08:11:03.221Z,1002.96
2022-12-28T08:12:03.218Z,1002.96
2022-12-28T08:13:03.178Z,1002.98
2022-12-28T08:14:04.151Z,1002.96
2022-12-28T08:15:03.194Z,1003.04
2022-12-28T08:16:03.249Z,1002.87
2022-12-28T08:17:03.134Z,1002.87
2022-12-28T08:18:03.110Z,1002.87
2022-12-28T08:19:03.099Z,1002.95
2022-12-28T08:20:03.104Z,1002.84
2022-12-28T08:21:03.114Z,1002.84
2022-12-28T08:22:03.099Z,1002.82
2022-12-28T08:23:04.069Z,1002.94
2022-12-28T08:24:03.049Z,1002.86
2022-12-28T08:25:03.068Z,1002.84
2022-12-28T08:26:03.036Z,1002.84
2022-12-28T08:27:03.042Z,1002.87
2022-12-28T08:28:03.053Z,1002.86
2022-12-28T08:29:03.990Z,1002.89
2022-12-28T08:30:02.988Z,1002.89
2022-12-28T08:31:04.069Z,1002.83
2022-12-28T08:32:03.969Z,1002.82
2022-12-28T08:33:02.974Z,1002.83
2022-12-28T08:34:02.938Z,1002.89
2022-12-28T08:35:02.955Z,1002.81
2022-12-28T08:36:02.956Z,1002.80
2022-12-28T08:37:02.920Z,1002.78
2022-12-28T08:38:02.915Z,1002.82
2022-12-28T08:39:02.883Z,1002.82
2022-12-28T08:40:02.881Z,1002.92
2022-12-28T08:41:02.865Z,1002.92
2022-12-28T08:42:02.913Z,1002.94
2022-12-28T08:43:02.875Z,1002.83
2022-12-28T08:44:02.837Z,1002.94
2022-12-28T08:45:02.823Z,1002.92
2022-12-28T08:46:02.939Z,1002.93
2022-12-28T08:47:02.891Z,1002.96
2022-12-28T08:48:02.849Z,1002.86
2022-12-28T08:49:02.787Z,1002.93
2022-12-28T08:50:03.762Z,1002.79
2022-12-28T08:51:02.758Z,1002.80
2022-12-28T08:52:02.765Z,1002.81
2022-12-28T08:53:03.764Z,1002.76
2022-12-28T08:54:02.734Z,1002.80
2022-12-28T08:55:02.713Z,1002.80
2022-12-28T08:56:06.430Z,1002.82
2022-12-28T08:57:02.696Z,1002.79
2022-12-28T08:58:02.688Z,1002.85
2022-12-28T08:59:10.322Z,1002.90
2022-12-28T09:00:02.645Z,1002.90
2022-12-28T09:01:02.728Z,1002.90
2022-12-28T09:02:02.742Z,1002.90
2022-12-28T09:03:02.811Z,1002.93
2022-12-28T09:04:02.677Z,1002.88
2022-12-28T09:05:02.627Z,1002.85
2022-12-28T09:06:02.588Z,1002.88
2022-12-28T09:07:02.599Z,1002.85
2022-12-28T09:08:02.598Z,1002.86
2022-12-28T09:09:06.306Z,1002.83
2022-12-28T09:10:02.600Z,1002.87
2022-12-28T09:11:02.559Z,1002.80
2022-12-28T09:12:03.535Z,1002.75
2022-12-28T09:13:03.520Z,1002.71
2022-12-28T09:14:02.543Z,1002.83
2022-12-28T09:15:02.512Z,1002.80
2022-12-28T09:16:02.542Z,1002.80
2022-12-28T09:17:03.472Z,1002.81
2022-12-28T09:18:02.471Z,1002.78
2022-12-28T09:19:02.482Z,1002.80
2022-12-28T09:20:02.484Z,1002.81
2022-12-28T09:21:02.423Z,1002.84
2022-12-28T09:22:02.440Z,1002.79
2022-12-28T09:23:02.448Z,1002.80
2022-12-28T09:24:02.400Z,1002.86
2022-12-28T09:25:03.412Z,1002.80
2022-12-28T09:26:03.384Z,1002.84
2022-12-28T09:27:02.365Z,1002.80
2022-12-28T09:28:02.376Z,1002.91
2022-12-28T09:29:02.342Z,1002.81
2022-12-28T09:30:02.340Z,1002.83
2022-12-28T09:31:03.375Z,1002.74
2022-12-28T09:32:02.342Z,1002.75
2022-12-28T09:33:02.295Z,1002.79
2022-12-28T09:35:03.283Z,1002.68
2022-12-28T09:36:03.271Z,1002.67
2022-12-28T09:37:02.307Z,1002.68
2022-12-28T09:38:02.290Z,1002.64
2022-12-28T09:39:03.289Z,1002.63
2022-12-28T09:40:03.223Z,1002.60
2022-12-28T09:41:02.305Z,1002.62
2022-12-28T09:42:02.245Z,1002.59
2022-12-28T09:43:02.200Z,1002.58
2022-12-28T09:44:03.215Z,1002.60
2022-12-28T09:45:02.192Z,1002.58
2022-12-28T09:46:02.315Z,1002.59
2022-12-28T09:47:02.240Z,1002.45
2022-12-28T09:48:02.216Z,1002.55
2022-12-28T09:49:02.132Z,1002.51
2022-12-28T09:50:03.116Z,1002.45
2022-12-28T09:51:02.126Z,1002.45
2022-12-28T09:52:02.128Z,1002.45
2022-12-28T09:53:02.099Z,1002.48
2022-12-28T09:54:02.130Z,1002.46
2022-12-28T09:55:03.063Z,1002.43
2022-12-28T09:56:02.058Z,1002.51
2022-12-28T09:57:03.078Z,1002.50
2022-12-28T09:58:02.038Z,1002.44
2022-12-28T09:59:02.027Z,1002.44
2022-12-28T10:00:02.065Z,1002.40
2022-12-28T10:01:02.120Z,1002.53
2022-12-28T10:02:02.133Z,1002.49
2022-12-28T10:03:02.066Z,1002.52
2022-12-28T10:04:02.052Z,1002.52
2022-12-28T10:05:02.957Z,1002.47
2022-12-28T10:06:01.971Z,1002.44
2022-12-28T10:07:02.990Z,1002.45
2022-12-28T10:08:01.931Z,1002.45
2022-12-28T10:09:01.943Z,1002.53
2022-12-28T10:10:02.906Z,1002.41
2022-12-28T10:11:01.879Z,1002.45
2022-12-28T10:12:01.913Z,1002.45
2022-12-28T10:13:04.583Z,1002.43
2022-12-28T10:14:01.870Z,1002.42
2022-12-28T10:15:01.896Z,1002.38
2022-12-28T10:16:01.855Z,1002.42
2022-12-28T10:17:01.832Z,1002.33
2022-12-28T10:18:01.829Z,1002.35
2022-12-28T10:19:02.792Z,1002.26
2022-12-28T10:20:01.809Z,1002.32
2022-12-28T10:21:01.814Z,1002.23
2022-12-28T10:22:01.769Z,1002.24
2022-12-28T10:23:01.758Z,1002.22
2022-12-28T10:25:02.794Z,1002.17
2022-12-28T10:26:01.731Z,1002.14
2022-12-28T10:27:01.730Z,1002.06
2022-12-28T10:28:01.723Z,1002.14
2022-12-28T10:29:01.698Z,1002.07
2022-12-28T10:30:01.725Z,1001.99
2022-12-28T10:31:01.694Z,1001.96
2022-12-28T10:32:01.701Z,1001.92
2022-12-28T10:33:03.431Z,1001.95
2022-12-28T10:34:02.643Z,1001.88
2022-12-28T10:35:01.646Z,1001.93
2022-12-28T10:36:02.634Z,1001.80
2022-12-28T10:37:01.650Z,1001.78
2022-12-28T10:38:02.594Z,1001.89
2022-12-28T10:39:01.611Z,1001.86
2022-12-28T10:40:02.629Z,1001.84
2022-12-28T10:41:01.583Z,1001.87
2022-12-28T10:42:01.568Z,1001.84
2022-12-28T10:43:08.475Z,1001.85
2022-12-28T10:44:37.433Z,1001.82
2022-12-28T10:45:02.511Z,1001.82
2022-12-28T10:46:02.527Z,1001.76
2022-12-28T10:47:01.572Z,1001.75
2022-12-28T10:48:01.524Z,1001.73
2022-12-28T10:49:01.488Z,1001.81
2022-12-28T10:51:02.450Z,1001.71
2022-12-28T10:52:01.463Z,1001.70
2022-12-28T10:53:01.443Z,1001.70
2022-12-28T10:54:01.484Z,1001.66
2022-12-28T10:55:08.518Z,1001.66
2022-12-28T10:56:02.540Z,1001.66
2022-12-28T10:57:01.399Z,1001.72
2022-12-28T10:58:28.700Z,1001.68
2022-12-28T10:59:02.365Z,1001.66
2022-12-28T11:00:01.384Z,1001.71
2022-12-28T11:01:01.432Z,1001.72
2022-12-28T11:02:01.503Z,1001.76
2022-12-28T11:03:01.493Z,1001.70
2022-12-28T11:04:01.311Z,1001.82
2022-12-28T11:05:01.324Z,1001.73
2022-12-28T11:06:01.332Z,1001.74
2022-12-28T11:07:01.335Z,1001.78
2022-12-28T11:08:01.259Z,1001.73
2022-12-28T11:09:01.251Z,1001.73
2022-12-28T11:10:01.266Z,1001.71
2022-12-28T11:11:02.280Z,1001.73
2022-12-28T11:12:01.245Z,1001.73
2022-12-28T11:13:01.202Z,1001.71
2022-12-28T11:14:01.211Z,1001.68
2022-12-28T11:15:01.212Z,1001.77
2022-12-28T11:16:01.234Z,1001.73
2022-12-28T11:17:02.223Z,1001.71
2022-12-28T11:18:01.211Z,1001.73
2022-12-28T11:19:01.156Z,1001.74
2022-12-28T11:20:01.178Z,1001.72
2022-12-28T11:21:01.161Z,1001.70
2022-12-28T11:22:01.123Z,1001.65
2022-12-28T11:23:01.126Z,1001.63
2022-12-28T11:24:01.099Z,1001.60
2022-12-28T11:25:01.092Z,1001.68
2022-12-28T11:26:01.088Z,1001.59
2022-12-28T11:27:01.070Z,1001.55
2022-12-28T11:28:01.073Z,1001.54
2022-12-28T11:29:01.074Z,1001.50
2022-12-28T11:30:01.042Z,1001.52
2022-12-28T11:31:02.015Z,1001.53
2022-12-28T11:32:02.156Z,1001.63
2022-12-28T11:33:01.051Z,1001.63
2022-12-28T11:34:01.005Z,1001.54
2022-12-28T11:35:00.973Z,1001.63
2022-12-28T11:36:02.527Z,1001.67
2022-12-28T11:37:00.956Z,1001.63
2022-12-28T11:38:00.987Z,1001.66
2022-12-28T11:39:01.940Z,1001.74
2022-12-28T11:40:00.925Z,1001.64
2022-12-28T11:41:00.940Z,1001.71
2022-12-28T11:43:01.884Z,1001.68
2022-12-28T11:44:00.898Z,1001.64
2022-12-28T11:45:00.920Z,1001.61
2022-12-28T11:46:01.907Z,1001.60
2022-12-28T11:47:01.852Z,1001.54
2022-12-28T11:48:00.901Z,1001.57
2022-12-28T11:49:00.831Z,1001.54
2022-12-28T11:50:00.815Z,1001.58
2022-12-28T11:51:00.820Z,1001.57
2022-12-28T11:52:00.804Z,1001.56
2022-12-28T11:53:00.827Z,1001.58
2022-12-28T11:54:00.783Z,1001.58
2022-12-28T11:55:01.757Z,1001.58
2022-12-28T11:56:00.956Z,1001.62
2022-12-28T11:57:00.735Z,1001.59
2022-12-28T11:58:00.749Z,1001.59
2022-12-28T11:59:00.746Z,1001.61
2022-12-28T12:00:00.733Z,1001.64
2022-12-28T12:01:00.773Z,1001.55
2022-12-28T12:02:00.754Z,1001.54
2022-12-28T12:03:00.766Z,1001.52
2022-12-28T12:04:01.711Z,1001.41
2022-12-28T12:05:00.651Z,1001.36
2022-12-28T12:06:00.631Z,1001.35
2022-12-28T12:07:00.644Z,1001.38
2022-12-28T12:08:00.620Z,1001.36
2022-12-28T12:09:01.630Z,1001.32
2022-12-28T12:10:00.622Z,1001.23